Time;durP1;ratioP1;P1;durP2;ratioP2;P2;SDS_P1;SDS_P2;PMS_P1;PMS_P2;Temp;Humidity;BMP_temperature;BMP_pressure;BME280_temperature;BME280_humidity;BME280_pressure;Samples;Min_cycle;Max_cycle;Signal;HPM_P1;HPM_P2
2021/11/29 00:04:54;;;;;;;12.07;10.87;;;5.90;45.20;;;;;;10541168;28;20227;-82
2021/11/29 00:09:57;;;;;;;11.50;10.50;;;5.80;45.00;;;;;;10542151;28;20584;-81
2021/11/29 00:15:02;;;;;;;11.70;10.70;;;5.90;45.00;;;;;;10539412;28;20592;-82
2021/11/29 00:20:08;;;;;;;11.60;10.50;;;5.90;44.90;;;;;;10539989;28;20231;-80
2021/11/29 00:25:12;;;;;;;11.93;10.83;;;5.80;44.60;;;;;;10548454;28;20284;-82
2021/11/29 00:30:16;;;;;;;11.77;10.77;;;5.80;44.50;;;;;;10538703;28;20227;-81
2021/11/29 00:35:20;;;;;;;12.00;11.00;;;5.70;44.70;;;;;;10542262;28;20239;-82
2021/11/29 00:40:27;;;;;;;10.93;9.93;;;5.60;44.70;;;;;;10540046;28;20606;-81
2021/11/29 00:45:32;;;;;;;12.20;11.10;;;5.60;44.70;;;;;;10550101;28;20276;-82
2021/11/29 00:50:38;;;;;;;11.73;10.63;;;5.40;44.70;;;;;;10542144;28;20238;-83
2021/11/29 00:55:43;;;;;;;11.97;10.73;;;5.50;44.80;;;;;;10551819;28;20223;-83
2021/11/29 01:00:48;;;;;;;11.50;10.40;;;5.40;45.00;;;;;;10551478;28;20224;-82
2021/11/29 01:05:57;;;;;;;10.97;9.87;;;5.40;45.20;;;;;;10550514;28;20247;-83
2021/11/29 01:11:02;;;;;;;11.17;10.10;;;5.30;45.10;;;;;;10513113;28;20733;-83
2021/11/29 01:16:11;;;;;;;10.83;9.83;;;5.30;45.20;;;;;;10528857;28;20236;-83
2021/11/29 01:21:17;;;;;;;10.57;9.60;;;5.30;45.30;;;;;;10549274;28;20235;-83
2021/11/29 01:26:24;;;;;;;10.47;9.47;;;5.20;45.20;;;;;;10531234;28;20228;-83
2021/11/29 01:31:32;;;;;;;10.60;9.60;;;5.20;45.20;;;;;;10551103;28;20276;-82
2021/11/29 01:36:36;;;;;;;9.30;8.40;;;5.10;45.40;;;;;;10551010;28;20223;-83
2021/11/29 01:41:44;;;;;;;9.53;8.73;;;5.30;45.30;;;;;;10551322;28;20317;-82
2021/11/29 01:46:49;;;;;;;9.93;9.13;;;5.30;45.40;;;;;;10551408;28;20223;-83
2021/11/29 01:51:55;;;;;;;10.00;9.10;;;5.40;45.40;;;;;;10550661;28;20724;-83
2021/11/29 01:56:59;;;;;;;9.77;8.97;;;5.40;45.20;;;;;;10530406;28;20285;-82
2021/11/29 02:02:04;;;;;;;10.77;9.73;;;5.40;45.20;;;;;;10540626;28;20228;-83
2021/11/29 02:07:10;;;;;;;8.97;8.17;;;5.30;44.90;;;;;;10537402;28;20231;-83
2021/11/29 02:12:20;;;;;;;9.73;8.77;;;5.40;45.00;;;;;;10549106;28;20228;-84
2021/11/29 02:17:29;;;;;;;10.63;9.53;;;5.30;45.10;;;;;;10547319;28;20227;-83
2021/11/29 02:22:44;;;;;;;9.23;8.43;;;5.30;45.00;;;;;;10546964;28;20721;-84
2021/11/29 02:27:49;;;;;;;9.73;8.80;;;5.30;45.00;;;;;;10546536;28;20227;-83
2021/11/29 02:32:57;;;;;;;9.67;8.77;;;5.20;44.90;;;;;;10546627;28;20228;-83
2021/11/29 02:38:05;;;;;;;9.47;8.67;;;5.20;45.00;;;;;;10545607;28;20235;-84
2021/11/29 02:43:19;;;;;;;10.53;9.60;;;5.20;45.00;;;;;;10536162;28;20227;-84
2021/11/29 02:48:41;;;;;;;9.70;8.70;;;5.20;45.20;;;;;;10536328;28;20234;-83
2021/11/29 02:53:53;;;;;;;9.63;8.83;;;5.20;45.10;;;;;;10538458;28;20231;-84
2021/11/29 02:58:56;;;;;;;10.00;9.10;;;5.20;45.00;;;;;;10547257;28;20248;-82
2021/11/29 03:04:02;;;;;;;11.13;10.03;;;5.20;44.50;;;;;;10547545;28;20227;-83
2021/11/29 03:09:17;;;;;;;11.57;10.47;;;5.20;44.90;;;;;;10546601;28;20258;-83
2021/11/29 03:14:21;;;;;;;11.80;10.70;;;5.10;44.80;;;;;;10534695;28;20228;-83
2021/11/29 03:19:30;;;;;;;11.37;10.27;;;5.10;44.90;;;;;;10545632;28;20232;-82
2021/11/29 03:24:35;;;;;;;11.53;10.43;;;5.00;45.10;;;;;;10545953;28;20227;-83
2021/11/29 03:29:39;;;;;;;12.00;10.87;;;5.00;45.10;;;;;;10545995;28;20240;-82
2021/11/29 03:34:46;;;;;;;12.90;11.67;;;5.00;45.00;;;;;;10545202;28;20231;-82
2021/11/29 03:39:52;;;;;;;12.67;11.47;;;5.00;45.00;;;;;;10544305;28;20245;-82
2021/11/29 03:45:00;;;;;;;12.40;11.30;;;4.90;45.00;;;;;;10534460;28;20263;-83
2021/11/29 03:50:04;;;;;;;11.57;10.57;;;5.00;45.60;;;;;;10532659;28;20231;-82
2021/11/29 03:55:09;;;;;;;12.17;11.00;;;5.10;45.10;;;;;;10533670;28;20227;-82
2021/11/29 04:00:14;;;;;;;11.40;10.40;;;5.10;45.10;;;;;;10533509;28;20235;-82
2021/11/29 04:05:19;;;;;;;12.40;11.30;;;5.10;45.00;;;;;;10544028;28;20231;-81
2021/11/29 04:10:24;;;;;;;11.80;10.70;;;5.10;45.00;;;;;;10543091;28;20334;-82
2021/11/29 04:15:27;;;;;;;11.67;10.67;;;5.10;45.00;;;;;;10544079;28;20712;-82
2021/11/29 04:20:36;;;;;;;12.40;11.30;;;5.10;45.10;;;;;;10542112;28;20235;-82
2021/11/29 04:25:46;;;;;;;11.60;10.50;;;5.10;45.00;;;;;;10542183;28;20231;-81
2021/11/29 04:30:52;;;;;;;12.03;10.93;;;5.10;45.20;;;;;;10535181;28;20249;-81
2021/11/29 04:35:56;;;;;;;11.47;10.40;;;5.20;45.40;;;;;;10531945;28;20227;-81
2021/11/29 04:41:01;;;;;;;10.97;10.07;;;5.20;45.20;;;;;;10530616;28;20285;-81
2021/11/29 04:46:05;;;;;;;12.07;10.87;;;5.30;45.20;;;;;;10533256;28;20228;-81
2021/11/29 04:51:14;;;;;;;12.23;11.13;;;5.20;45.00;;;;;;10541954;28;20227;-81
2021/11/29 04:56:19;;;;;;;12.50;11.40;;;5.30;45.40;;;;;;10542363;28;20760;-81
2021/11/29 05:01:22;;;;;;;11.53;10.53;;;5.30;44.50;;;;;;10543589;28;20255;-81
2021/11/29 05:06:28;;;;;;;12.47;11.37;;;5.20;44.50;;;;;;10534084;28;20250;-81
2021/11/29 05:11:35;;;;;;;12.27;11.10;;;5.20;44.60;;;;;;10540343;28;20231;-80
2021/11/29 05:16:41;;;;;;;12.00;10.90;;;5.20;44.70;;;;;;10553142;28;20286;-81
2021/11/29 05:21:46;;;;;;;11.93;10.83;;;5.10;44.60;;;;;;10523590;28;20305;-82
2021/11/29 05:26:51;;;;;;;12.73;11.63;;;5.00;44.70;;;;;;10543986;28;20307;-84
2021/11/29 05:31:54;;;;;;;13.40;12.20;;;5.00;45.40;;;;;;10545567;28;20232;-81
2021/11/29 05:36:58;;;;;;;13.03;11.83;;;5.00;44.70;;;;;;10543110;28;20701;-82
2021/11/29 05:42:03;;;;;;;11.57;10.47;;;4.90;44.80;;;;;;10544847;28;20234;-81
2021/11/29 05:47:07;;;;;;;13.40;12.00;;;4.80;45.00;;;;;;10496880;28;20695;-81
2021/11/29 05:52:10;;;;;;;13.07;11.80;;;4.80;45.00;;;;;;10504440;28;20311;-81
2021/11/29 05:57:15;;;;;;;14.20;12.80;;;4.80;45.00;;;;;;10500765;28;20273;-80
2021/11/29 06:02:18;;;;;;;13.23;12.00;;;4.80;45.20;;;;;;10497614;28;20719;-81
2021/11/29 06:07:21;;;;;;;13.07;11.73;;;4.90;45.20;;;;;;10513860;28;20232;-80
2021/11/29 06:12:26;;;;;;;12.70;11.50;;;4.90;45.20;;;;;;10487983;28;20612;-81
2021/11/29 06:17:29;;;;;;;12.70;11.50;;;4.90;46.10;;;;;;10474909;28;20259;-80
2021/11/29 06:22:33;;;;;;;13.13;11.87;;;5.00;45.70;;;;;;10469306;28;20714;-80
2021/11/29 06:27:37;;;;;;;13.93;12.53;;;5.00;45.40;;;;;;10503942;28;20232;-80
2021/11/29 06:32:41;;;;;;;12.07;10.97;;;5.00;46.00;;;;;;10496698;28;20308;-80
2021/11/29 06:37:48;;;;;;;12.77;11.47;;;5.00;45.20;;;;;;10529811;28;20601;-80
2021/11/29 06:42:53;;;;;;;13.43;12.13;;;5.00;45.30;;;;;;10510839;28;20228;-80
2021/11/29 06:47:57;;;;;;;13.90;11.00;;;5.00;45.30;;;;;;10516538;28;20263;-80
2021/11/29 06:53:00;;;;;;;13.37;12.07;;;5.00;45.20;;;;;;10532196;28;20292;-80
2021/11/29 06:58:05;;;;;;;13.10;11.90;;;5.00;45.20;;;;;;10524144;28;20224;-80
2021/11/29 07:03:09;;;;;;;13.40;11.97;;;5.00;45.10;;;;;;10500914;28;20990;-80
2021/11/29 07:08:12;;;;;;;13.17;11.90;;;5.00;45.10;;;;;;10507067;28;20229;-80
2021/11/29 07:13:17;;;;;;;13.63;12.23;;;5.00;45.10;;;;;;10501031;28;20244;-80
2021/11/29 07:18:21;;;;;;;11.83;10.73;;;5.00;45.20;;;;;;10483748;28;20240;-81
2021/11/29 07:23:38;;;;;;;12.00;10.80;;;5.00;45.20;;;;;;10516349;28;20240;-80
2021/11/29 07:28:45;;;;;;;12.50;11.30;;;5.00;45.30;;;;;;10493056;28;20232;-80
2021/11/29 07:33:49;;;;;;;13.93;12.53;;;5.00;45.20;;;;;;10508527;28;20668;-80
2021/11/29 07:38:52;;;;;;;12.43;11.13;;;5.00;45.10;;;;;;10499661;28;20307;-80
2021/11/29 07:43:57;;;;;;;13.13;11.83;;;5.00;45.10;;;;;;10500099;28;20231;-80
2021/11/29 07:49:03;;;;;;;14.73;12.37;;;5.00;45.20;;;;;;10499921;28;20243;-80
2021/11/29 07:54:06;;;;;;;13.53;12.13;;;4.90;45.20;;;;;;10508851;28;20224;-80
2021/11/29 07:59:11;;;;;;;13.73;11.87;;;4.90;45.40;;;;;;10498895;28;20307;-81
2021/11/29 08:04:14;;;;;;;13.53;12.07;;;4.90;45.60;;;;;;10505229;28;20254;-79
2021/11/29 08:09:18;;;;;;;12.87;11.57;;;4.90;45.50;;;;;;10489936;28;20322;-82
2021/11/29 08:14:22;;;;;;;12.80;11.50;;;4.80;45.40;;;;;;10497972;28;20310;-80
2021/11/29 08:19:25;;;;;;;12.67;11.37;;;4.80;45.40;;;;;;10496951;28;20311;-80
2021/11/29 08:24:29;;;;;;;12.60;11.30;;;4.80;45.50;;;;;;10499149;28;20249;-80
2021/11/29 08:29:34;;;;;;;11.77;10.67;;;4.90;45.60;;;;;;10485823;28;20244;-80
2021/11/29 08:34:39;;;;;;;11.53;10.37;;;5.00;45.80;;;;;;10491712;28;20223;-81
2021/11/29 08:39:42;;;;;;;12.33;11.03;;;5.00;45.70;;;;;;10494057;28;20312;-81
2021/11/29 08:44:49;;;;;;;13.03;11.73;;;5.10;45.60;;;;;;10505552;28;20256;-79
2021/11/29 08:49:52;;;;;;;12.70;11.37;;;5.00;45.50;;;;;;10531477;28;20282;-82
2021/11/29 08:54:57;;;;;;;14.43;12.87;;;5.10;45.60;;;;;;10503840;28;20702;-81
2021/11/29 09:00:04;;;;;;;13.87;12.40;;;5.20;45.60;;;;;;10519484;28;20289;-80
2021/11/29 09:05:09;;;;;;;14.00;12.60;;;5.30;45.60;;;;;;10498276;28;20633;-80
2021/11/29 09:10:13;;;;;;;14.97;13.00;;;5.30;45.60;;;;;;10499091;28;20760;-80
2021/11/29 09:15:21;;;;;;;14.77;13.10;;;5.40;45.40;;;;;;10498710;28;20720;-80
2021/11/29 09:20:26;;;;;;;13.57;12.27;;;5.40;45.30;;;;;;10502229;28;20304;-82
2021/11/29 09:25:30;;;;;;;14.63;13.13;;;5.40;45.50;;;;;;10501518;28;20682;-81
2021/11/29 09:30:35;;;;;;;19.97;17.87;;;5.40;45.50;;;;;;10497680;28;20243;-82
2021/11/29 09:35:38;;;;;;;15.30;13.70;;;5.40;45.50;;;;;;10503594;28;20229;-81
2021/11/29 09:40:42;;;;;;;15.77;14.17;;;5.50;45.60;;;;;;10510099;28;20249;-80
2021/11/29 09:45:49;;;;;;;16.13;14.60;;;5.50;45.60;;;;;;10497110;28;20235;-80
2021/11/29 09:50:54;;;;;;;15.50;14.00;;;5.60;45.50;;;;;;10497481;28;20227;-78
2021/11/29 09:56:00;;;;;;;15.63;14.03;;;5.60;45.70;;;;;;10518551;28;20222;-78
2021/11/29 10:01:07;;;;;;;15.83;14.20;;;5.60;46.10;;;;;;10495322;28;20227;-77
2021/11/29 10:06:30;;;;;;;15.20;13.70;;;5.70;45.80;;;;;;10487690;28;20878;-77
2021/11/29 10:11:34;;;;;;;15.57;13.97;;;5.80;45.90;;;;;;10485274;28;20319;-78
2021/11/29 10:16:43;;;;;;;16.67;15.03;;;5.90;46.00;;;;;;10514445;28;20231;-78
2021/11/29 10:21:52;;;;;;;16.40;14.80;;;5.90;45.90;;;;;;10512196;28;20255;-77
2021/11/29 10:26:57;;;;;;;17.80;15.93;;;6.00;45.60;;;;;;10463099;28;20228;-78
2021/11/29 10:32:01;;;;;;;16.97;15.27;;;6.00;45.60;;;;;;10482879;28;20220;-78
2021/11/29 10:37:08;;;;;;;17.00;15.30;;;6.00;45.50;;;;;;10480362;28;20230;-77
2021/11/29 10:42:15;;;;;;;15.43;13.83;;;6.00;45.40;;;;;;10490066;28;20602;-78
2021/11/29 10:47:21;;;;;;;16.83;15.03;;;6.10;45.40;;;;;;10490654;28;20219;-79
2021/11/29 10:52:26;;;;;;;16.50;14.70;;;6.10;45.60;;;;;;10468882;28;20793;-78
2021/11/29 10:57:30;;;;;;;16.97;15.13;;;6.10;45.40;;;;;;10482505;28;20228;-79
2021/11/29 11:02:37;;;;;;;14.80;13.40;;;6.00;45.50;;;;;;10474434;28;20323;-78
2021/11/29 11:07:41;;;;;;;16.53;14.83;;;6.00;45.60;;;;;;10473087;28;20795;-78
2021/11/29 11:12:46;;;;;;;16.17;14.57;;;5.90;45.80;;;;;;10474939;28;20228;-78
2021/11/29 11:17:54;;;;;;;14.93;13.33;;;5.90;45.90;;;;;;10482944;28;20238;-79
2021/11/29 11:22:57;;;;;;;16.60;14.90;;;5.90;46.20;;;;;;10482655;28;20745;-78
2021/11/29 11:28:04;;;;;;;17.43;15.63;;;5.90;46.10;;;;;;10478292;28;20238;-79
2021/11/29 11:33:11;;;;;;;14.23;12.73;;;5.90;46.20;;;;;;10477423;28;20220;-78
2021/11/29 11:38:18;;;;;;;15.20;13.73;;;5.90;46.60;;;;;;10479976;28;20415;-80
2021/11/29 11:43:22;;;;;;;14.07;12.50;;;5.80;46.10;;;;;;10473085;28;20225;-79
2021/11/29 11:48:28;;;;;;;13.27;11.97;;;5.80;46.10;;;;;;10489928;28;20231;-79
2021/11/29 11:53:31;;;;;;;12.20;11.03;;;5.90;46.00;;;;;;10479277;28;20229;-77
2021/11/29 11:58:42;;;;;;;12.60;11.40;;;5.80;46.00;;;;;;10473671;28;20232;-78
2021/11/29 12:03:50;;;;;;;11.47;10.37;;;5.90;46.30;;;;;;10466304;28;20632;-78
2021/11/29 12:09:00;;;;;;;12.40;10.90;;;5.90;46.10;;;;;;10468170;28;20232;-77
2021/11/29 12:14:13;;;;;;;12.63;11.43;;;6.00;46.10;;;;;;10469696;28;20648;-77
2021/11/29 12:19:39;;;;;;;12.57;11.40;;;6.00;46.50;;;;;;10481008;28;20228;-77
2021/11/29 12:24:45;;;;;;;11.03;9.93;;;6.10;46.20;;;;;;10471330;28;20241;-78
2021/11/29 12:29:52;;;;;;;11.40;9.27;;;6.20;46.00;;;;;;10466772;28;20588;-78
2021/11/29 12:35:04;;;;;;;10.60;9.27;;;6.30;45.50;;;;;;10483194;28;20605;-78
2021/11/29 12:40:14;;;;;;;8.10;6.90;;;6.30;45.50;;;;;;10492580;28;20274;-78
2021/11/29 12:45:20;;;;;;;7.10;6.40;;;6.40;45.00;;;;;;10491160;28;20225;-76
2021/11/29 12:50:55;;;;;;;7.70;7.00;;;6.40;44.80;;;;;;10478461;28;20231;-76
2021/11/29 12:56:18;;;;;;;6.80;6.00;;;6.40;44.70;;;;;;10482243;28;20220;-77
2021/11/29 13:01:21;;;;;;;7.20;6.27;;;6.50;44.40;;;;;;10472060;28;20223;-78
2021/11/29 13:06:29;;;;;;;7.47;6.23;;;6.50;44.60;;;;;;10466890;28;20234;-79
2021/11/29 13:11:35;;;;;;;7.90;6.10;;;6.50;44.40;;;;;;10465738;28;20241;-77
2021/11/29 13:16:42;;;;;;;7.27;5.60;;;6.50;44.20;;;;;;10457499;28;20230;-76
2021/11/29 13:21:56;;;;;;;7.73;5.17;;;6.60;44.10;;;;;;10454865;28;20767;-76
2021/11/29 13:27:04;;;;;;;6.53;5.63;;;6.60;43.70;;;;;;10451943;28;20219;-78
2021/11/29 13:32:10;;;;;;;8.83;5.97;;;6.60;44.00;;;;;;10460348;28;20568;-76
2021/11/29 13:37:18;;;;;;;8.83;6.57;;;6.60;43.80;;;;;;10472180;28;20231;-78
2021/11/29 13:42:28;;;;;;;6.43;5.77;;;6.60;43.30;;;;;;10459729;28;20232;-76
2021/11/29 13:47:39;;;;;;;6.87;5.70;;;6.50;43.20;;;;;;10504529;28;20953;-77
2021/11/29 13:52:47;;;;;;;7.83;5.27;;;6.50;43.80;;;;;;10475944;28;20717;-78
2021/11/29 13:57:52;;;;;;;6.43;4.90;;;6.40;43.50;;;;;;10479254;28;20221;-78
2021/11/29 14:03:19;;;;;;;6.73;5.43;;;6.30;43.30;;;;;;10484762;28;20231;-77
2021/11/29 14:08:27;;;;;;;6.07;4.53;;;6.10;42.70;;;;;;10473853;28;20307;-76
2021/11/29 14:13:34;;;;;;;5.10;4.60;;;6.00;43.50;;;;;;10503120;28;20748;-76
2021/11/29 14:18:42;;;;;;;5.30;4.80;;;5.90;43.90;;;;;;10524944;28;20266;-76
2021/11/29 14:23:50;;;;;;;6.37;5.20;;;5.90;44.10;;;;;;10491240;28;20240;-76
2021/11/29 14:28:54;;;;;;;5.37;4.10;;;5.90;43.90;;;;;;10510739;28;20227;-76
2021/11/29 14:33:57;;;;;;;3.97;3.53;;;5.90;43.50;;;;;;10519454;28;20224;-76
2021/11/29 14:39:03;;;;;;;4.13;3.20;;;5.80;43.40;;;;;;10505368;28;20235;-76
2021/11/29 14:44:07;;;;;;;3.40;3.10;;;5.60;43.40;;;;;;10453003;28;20247;-76
2021/11/29 14:49:14;;;;;;;4.43;3.47;;;5.50;43.60;;;;;;10469102;28;20238;-76
2021/11/29 14:54:26;;;;;;;3.97;3.33;;;5.50;43.80;;;;;;10476297;28;20590;-76
2021/11/29 14:59:29;;;;;;;4.70;3.57;;;5.40;43.80;;;;;;10478612;28;20306;-77
2021/11/29 15:04:35;;;;;;;6.03;4.37;;;5.40;44.00;;;;;;10489764;28;20243;-77
2021/11/29 15:09:42;;;;;;;3.73;3.43;;;5.40;45.10;;;;;;10475531;28;20275;-78
2021/11/29 15:14:46;;;;;;;5.40;4.20;;;5.50;44.40;;;;;;10476156;28;20228;-77
2021/11/29 15:19:51;;;;;;;5.87;4.60;;;5.50;44.30;;;;;;10485167;28;20228;-78
2021/11/29 15:24:58;;;;;;;5.03;4.37;;;5.60;43.80;;;;;;10469895;28;20291;-77
2021/11/29 15:30:12;;;;;;;8.40;4.50;;;5.50;43.80;;;;;;10473836;28;20222;-78
2021/11/29 15:35:17;;;;;;;6.17;4.77;;;5.50;43.90;;;;;;10476328;28;20223;-77
2021/11/29 15:40:26;;;;;;;5.10;4.60;;;5.50;44.60;;;;;;10475056;28;20235;-77
2021/11/29 15:45:33;;;;;;;5.90;4.70;;;5.60;44.70;;;;;;10485847;28;20230;-76
2021/11/29 15:50:37;;;;;;;4.77;4.37;;;5.70;44.30;;;;;;10468791;28;20232;-75
2021/11/29 15:55:42;;;;;;;4.53;4.13;;;5.60;44.00;;;;;;10474378;28;20238;-77
2021/11/29 16:00:45;;;;;;;6.73;4.03;;;5.60;43.80;;;;;;10471183;28;20246;-78
2021/11/29 16:05:49;;;;;;;4.73;4.07;;;5.50;43.80;;;;;;10474259;28;20225;-77
2021/11/29 16:10:55;;;;;;;5.83;3.93;;;5.50;43.80;;;;;;10482149;28;20225;-76
2021/11/29 16:15:59;;;;;;;4.40;3.87;;;5.50;43.70;;;;;;10494212;28;20923;-77
2021/11/29 16:21:04;;;;;;;7.37;4.00;;;5.50;43.80;;;;;;10466862;28;20324;-77
2021/11/29 16:26:12;;;;;;;6.60;4.53;;;5.50;43.60;;;;;;10487255;28;20225;-79
2021/11/29 16:31:17;;;;;;;4.53;3.90;;;5.50;44.10;;;;;;10483906;28;20239;-78
2021/11/29 16:36:20;;;;;;;5.07;3.80;;;5.50;43.50;;;;;;10484520;28;20220;-77
2021/11/29 16:41:25;;;;;;;8.87;6.73;;;5.40;43.60;;;;;;10486733;28;20695;-77
2021/11/29 16:46:28;;;;;;;5.93;4.37;;;5.40;43.70;;;;;;10475951;28;20220;-76
2021/11/29 16:51:32;;;;;;;4.93;4.00;;;5.50;44.00;;;;;;10471667;28;20311;-79
2021/11/29 16:56:38;;;;;;;5.60;4.83;;;5.40;44.00;;;;;;10467245;28;20228;-77
2021/11/29 17:01:41;;;;;;;7.20;4.90;;;5.40;43.90;;;;;;10480026;28;20665;-78
2021/11/29 17:06:52;;;;;;;6.10;4.90;;;5.30;44.00;;;;;;10472290;28;20750;-77
2021/11/29 17:11:57;;;;;;;5.60;5.00;;;5.20;44.20;;;;;;10488979;28;20236;-76
2021/11/29 17:17:02;;;;;;;7.47;5.13;;;5.10;44.20;;;;;;10474488;28;20219;-76
2021/11/29 17:22:05;;;;;;;7.20;5.40;;;5.10;44.30;;;;;;10477298;28;20220;-79
2021/11/29 17:27:10;;;;;;;5.20;4.70;;;5.10;44.40;;;;;;10488309;28;20224;-80
2021/11/29 17:32:14;;;;;;;5.27;4.77;;;5.10;44.50;;;;;;10485229;28;20290;-77
2021/11/29 17:37:17;;;;;;;5.80;5.20;;;5.10;44.50;;;;;;10495298;28;20637;-77
2021/11/29 17:42:22;;;;;;;8.93;5.10;;;5.00;44.50;;;;;;10516039;28;20914;-76
2021/11/29 17:47:26;;;;;;;5.83;4.73;;;5.00;44.70;;;;;;10476710;28;20224;-76
2021/11/29 17:52:29;;;;;;;7.83;5.43;;;5.00;44.60;;;;;;10492898;28;20258;-77
2021/11/29 17:57:34;;;;;;;7.13;5.17;;;5.00;44.60;;;;;;10484329;28;20737;-76
2021/11/29 18:02:37;;;;;;;6.37;5.03;;;5.00;44.60;;;;;;10483812;28;20229;-77
2021/11/29 18:07:48;;;;;;;7.40;5.17;;;4.90;44.60;;;;;;10494086;28;20220;-76
2021/11/29 18:12:52;;;;;;;6.53;5.20;;;4.90;44.70;;;;;;10466918;28;20231;-78
2021/11/29 18:17:57;;;;;;;5.30;4.33;;;4.90;44.70;;;;;;10493575;28;20719;-78
2021/11/29 18:23:03;;;;;;;5.67;4.30;;;5.00;44.70;;;;;;10498711;28;20591;-78
2021/11/29 18:28:09;;;;;;;6.13;4.10;;;5.00;44.60;;;;;;10483674;28;20239;-78
2021/11/29 18:33:12;;;;;;;7.53;6.43;;;5.00;44.60;;;;;;10486061;28;20221;-78
2021/11/29 18:38:16;;;;;;;6.03;4.77;;;5.00;44.60;;;;;;10478688;28;20225;-77
2021/11/29 18:43:20;;;;;;;4.30;3.90;;;4.90;44.70;;;;;;10475331;28;20224;-77
2021/11/29 18:48:24;;;;;;;4.67;4.27;;;4.90;44.70;;;;;;10484573;28;20596;-78
2021/11/29 18:53:27;;;;;;;5.37;4.03;;;4.90;44.80;;;;;;10479187;28;20274;-78
2021/11/29 18:58:32;;;;;;;4.10;3.70;;;4.90;44.80;;;;;;10483151;28;20755;-78
2021/11/29 19:03:35;;;;;;;4.73;4.20;;;5.00;44.80;;;;;;10486082;28;20256;-79
2021/11/29 19:08:38;;;;;;;4.53;3.77;;;5.00;44.70;;;;;;10486967;28;20254;-78
2021/11/29 19:13:43;;;;;;;5.00;3.80;;;5.00;44.70;;;;;;10494958;28;20262;-78
2021/11/29 19:18:46;;;;;;;5.73;4.53;;;5.00;44.70;;;;;;10477918;28;20792;-77
2021/11/29 19:23:52;;;;;;;4.77;4.07;;;4.90;45.50;;;;;;10479164;28;20240;-76
2021/11/29 19:28:58;;;;;;;5.07;4.17;;;4.80;44.90;;;;;;10459703;28;20236;-79
2021/11/29 19:34:01;;;;;;;4.30;3.90;;;4.90;45.00;;;;;;10493353;28;20239;-79
2021/11/29 19:39:06;;;;;;;5.67;4.60;;;4.80;44.90;;;;;;10495069;28;20235;-78
2021/11/29 19:44:23;;;;;;;4.33;3.90;;;4.70;45.10;;;;;;10507374;28;20307;-79
2021/11/29 19:49:27;;;;;;;5.30;4.80;;;4.70;45.40;;;;;;10528912;28;20310;-79
2021/11/29 19:54:34;;;;;;;5.70;5.13;;;4.70;45.90;;;;;;10502429;28;20228;-79
2021/11/29 19:59:41;;;;;;;7.87;5.30;;;4.70;45.30;;;;;;10482919;28;20244;-78
2021/11/29 20:04:44;;;;;;;6.90;4.90;;;4.70;45.40;;;;;;10492515;28;20238;-80
2021/11/29 20:09:47;;;;;;;7.00;5.37;;;4.70;45.30;;;;;;10481684;28;20235;-79
2021/11/29 20:14:52;;;;;;;4.77;4.30;;;4.70;45.20;;;;;;10494607;28;20227;-79
2021/11/29 20:19:55;;;;;;;5.33;4.83;;;4.80;45.20;;;;;;10485201;28;20228;-79
2021/11/29 20:25:02;;;;;;;5.03;4.57;;;4.80;45.10;;;;;;10481642;28;20713;-79
2021/11/29 20:30:09;;;;;;;6.47;5.10;;;4.70;45.10;;;;;;10478138;28;20234;-78
2021/11/29 20:35:12;;;;;;;5.10;4.60;;;4.70;45.10;;;;;;10474392;28;20227;-78
2021/11/29 20:40:16;;;;;;;5.67;4.70;;;4.70;45.20;;;;;;10484135;28;20224;-78
2021/11/29 20:45:21;;;;;;;5.87;4.90;;;4.70;45.10;;;;;;10486478;28;20234;-77
2021/11/29 20:50:24;;;;;;;5.40;4.20;;;4.70;45.10;;;;;;10480652;28;20240;-78
2021/11/29 20:55:28;;;;;;;4.27;3.87;;;4.70;45.10;;;;;;10484213;28;20227;-78
2021/11/29 21:00:34;;;;;;;5.20;4.70;;;4.70;45.20;;;;;;10484225;28;20236;-78
2021/11/29 21:05:38;;;;;;;4.83;4.33;;;4.80;45.40;;;;;;10486152;28;20235;-78
2021/11/29 21:10:42;;;;;;;4.83;4.37;;;4.70;45.30;;;;;;10484986;28;20617;-77
2021/11/29 21:15:46;;;;;;;4.73;4.33;;;4.70;45.30;;;;;;10493771;28;20246;-77
2021/11/29 21:20:50;;;;;;;4.67;4.27;;;4.70;45.20;;;;;;10477731;28;20267;-77
2021/11/29 21:25:53;;;;;;;4.57;4.17;;;4.70;45.40;;;;;;10486187;28;20698;-78
2021/11/29 21:30:57;;;;;;;4.63;4.23;;;4.60;45.40;;;;;;10413342;22;20228;-78
2021/11/29 21:36:01;;;;;;;4.50;4.10;;;4.70;45.50;;;;;;10359709;28;20766;-77
2021/11/29 21:41:05;;;;;;;4.20;3.77;;;4.70;45.40;;;;;;10333517;28;21213;-77
2021/11/29 21:46:10;;;;;;;4.23;3.87;;;4.70;45.40;;;;;;10325097;28;20227;-77
2021/11/29 21:51:14;;;;;;;4.20;3.80;;;4.80;45.40;;;;;;10321911;28;20231;-77
2021/11/29 21:56:22;;;;;;;4.37;3.97;;;4.80;45.30;;;;;;10319731;28;20229;-77
2021/11/29 22:01:27;;;;;;;4.37;3.97;;;4.80;45.30;;;;;;10330886;28;20317;-77
2021/11/29 22:06:32;;;;;;;4.73;4.33;;;4.90;45.40;;;;;;10333160;28;20253;-77
2021/11/29 22:11:36;;;;;;;3.97;3.67;;;4.90;45.40;;;;;;10330856;28;20234;-77
2021/11/29 22:16:40;;;;;;;4.60;4.20;;;4.90;45.30;;;;;;10326186;28;20310;-77
2021/11/29 22:21:44;;;;;;;4.30;4.00;;;5.00;45.30;;;;;;10321361;28;20260;-76
2021/11/29 22:26:48;;;;;;;5.03;4.63;;;4.90;45.40;;;;;;10323041;28;20713;-76
2021/11/29 22:31:53;;;;;;;4.40;4.00;;;4.80;45.30;;;;;;10328097;28;20243;-77
2021/11/29 22:36:56;;;;;;;4.80;4.40;;;4.80;45.30;;;;;;10323437;28;20219;-77
2021/11/29 22:42:01;;;;;;;5.13;4.67;;;4.80;45.50;;;;;;10323295;28;20570;-77
2021/11/29 22:47:06;;;;;;;4.60;4.20;;;4.80;45.50;;;;;;10325596;28;20227;-77
2021/11/29 22:52:09;;;;;;;5.07;4.60;;;4.80;45.60;;;;;;10334079;28;20226;-77
2021/11/29 22:57:12;;;;;;;4.83;4.50;;;4.80;45.60;;;;;;10324583;28;20223;-77
2021/11/29 23:02:17;;;;;;;4.93;4.40;;;4.80;45.70;;;;;;10318487;28;20280;-79
2021/11/29 23:07:20;;;;;;;5.37;4.87;;;4.80;45.70;;;;;;10310551;28;21105;-76
2021/11/29 23:12:24;;;;;;;4.80;4.40;;;4.80;45.60;;;;;;10317176;28;20230;-76
2021/11/29 23:17:29;;;;;;;5.00;4.60;;;4.80;45.70;;;;;;10318072;28;20237;-77
2021/11/29 23:22:32;;;;;;;4.97;4.57;;;4.90;45.90;;;;;;10325562;28;20286;-77
2021/11/29 23:27:35;;;;;;;4.57;4.17;;;4.90;45.60;;;;;;10320917;28;20314;-76
2021/11/29 23:32:39;;;;;;;5.60;5.07;;;5.00;45.60;;;;;;10315070;28;20230;-76
2021/11/29 23:37:43;;;;;;;5.13;4.40;;;4.90;45.70;;;;;;10319049;28;20233;-77
2021/11/29 23:42:46;;;;;;;4.87;4.47;;;4.80;45.70;;;;;;10317059;28;20601;-76
2021/11/29 23:48:00;;;;;;;5.00;4.47;;;4.80;45.80;;;;;;10320212;28;20230;-77
2021/11/29 23:53:21;;;;;;;4.07;3.77;;;4.80;45.90;;;;;;10316332;28;20226;-77
2021/11/29 23:58:25;;;;;;;4.47;4.07;;;4.80;45.80;;;;;;10323982;28;20272;-76
